createdAt,value
2017-12-10T00:00:46.204Z,100200.66
2017-12-10T00:03:18.056Z,100197.25
2017-12-10T00:05:46.363Z,100187.88
2017-12-10T00:08:17.657Z,100186.72
2017-12-10T00:10:46.041Z,100178.63
2017-12-10T00:13:17.497Z,100175.59
2017-12-10T00:15:45.799Z,100155.86
2017-12-10T00:18:17.076Z,100166.90
2017-12-10T00:20:45.368Z,100154.38
2017-12-10T00:23:20.183Z,100146.73
2017-12-10T00:25:48.497Z,100135.63
2017-12-10T00:28:18.477Z,100124.30
2017-12-10T00:30:46.766Z,100111.09
2017-12-10T00:33:18.017Z,100116.78
2017-12-10T00:35:46.290Z,100111.02
2017-12-10T00:38:20.252Z,100111.83
2017-12-10T00:40:48.547Z,100094.87
2017-12-10T00:43:18.178Z,100084.61
2017-12-10T00:45:46.457Z,100087.23
2017-12-10T00:48:17.653Z,100037.82
2017-12-10T00:50:45.926Z,100070.38
2017-12-10T00:53:17.418Z,100073.02
2017-12-10T00:55:46.154Z,100065.03
2017-12-10T00:58:17.784Z,100060.37
2017-12-10T01:00:46.077Z,100045.13
2017-12-10T01:03:21.392Z,100038.99
2017-12-10T01:05:49.696Z,100037.11
2017-12-10T01:08:17.987Z,100015.75
2017-12-10T01:10:46.277Z,100042.61
2017-12-10T01:13:20.516Z,100032.44
2017-12-10T01:15:49.693Z,100027.52
2017-12-10T01:18:18.287Z,100023.02
2017-12-10T01:20:46.601Z,100018.48
2017-12-10T01:23:18.811Z,100008.73
2017-12-10T01:25:47.116Z,100004.39
2017-12-10T01:28:18.569Z,100007.13
2017-12-10T01:30:46.872Z,100006.18
2017-12-10T01:33:18.149Z,99992.31
2017-12-10T01:35:46.429Z,99990.12
2017-12-10T01:38:20.377Z,99986.55
2017-12-10T01:40:49.211Z,99981.30
2017-12-10T01:43:17.937Z,99990.09
2017-12-10T01:45:46.208Z,99978.75
2017-12-10T01:48:17.551Z,99983.20
2017-12-10T01:50:45.814Z,99974.88
2017-12-10T01:53:17.155Z,99977.76
2017-12-10T01:55:45.417Z,99962.23
2017-12-10T01:58:20.113Z,99956.98
2017-12-10T02:00:48.377Z,99963.70
2017-12-10T02:03:18.297Z,99944.35
2017-12-10T02:05:46.652Z,99949.39
2017-12-10T02:08:19.010Z,99945.98
2017-12-10T02:10:47.321Z,99928.88
2017-12-10T02:13:19.485Z,99925.16
2017-12-10T02:15:47.812Z,99925.95
2017-12-10T02:18:19.012Z,99924.72
2017-12-10T02:20:47.297Z,99924.24
2017-12-10T02:23:18.711Z,99911.33
2017-12-10T02:25:47.032Z,99899.52
2017-12-10T02:28:20.050Z,99890.37
2017-12-10T02:30:48.352Z,99878.13
2017-12-10T02:33:18.658Z,99869.78
2017-12-10T02:35:46.936Z,99868.53
2017-12-10T02:38:18.853Z,99859.75
2017-12-10T02:40:47.126Z,99797.34
2017-12-10T02:43:18.500Z,99850.86
2017-12-10T02:45:47.222Z,99850.91
2017-12-10T02:48:19.214Z,99848.54
2017-12-10T02:50:47.499Z,99850.98
2017-12-10T02:53:19.490Z,99841.61
2017-12-10T02:55:47.789Z,99828.53
2017-12-10T02:58:17.909Z,99797.72
2017-12-10T03:00:46.160Z,99801.75
2017-12-10T03:03:17.910Z,99798.42
2017-12-10T03:05:46.194Z,99796.36
2017-12-10T03:08:21.970Z,99778.62
2017-12-10T03:10:50.272Z,99782.05
2017-12-10T03:13:18.600Z,99776.80
2017-12-10T03:15:46.863Z,99769.31
2017-12-10T03:18:17.881Z,99758.07
2017-12-10T03:20:46.155Z,99755.66
2017-12-10T03:23:17.588Z,99754.34
2017-12-10T03:25:46.343Z,99740.98
2017-12-10T03:28:18.281Z,99738.41
2017-12-10T03:30:46.564Z,99731.06
2017-12-10T03:33:18.970Z,99721.25
2017-12-10T03:35:47.234Z,99715.67
2017-12-10T03:38:19.423Z,99714.78
2017-12-10T03:40:47.703Z,99700.84
2017-12-10T03:43:18.705Z,99703.48
2017-12-10T03:45:47.000Z,99703.28
2017-12-10T03:48:18.837Z,99690.92
2017-12-10T03:50:47.226Z,99684.39
2017-12-10T03:53:19.959Z,99671.67
2017-12-10T03:55:48.241Z,99665.04
2017-12-10T03:58:19.925Z,99652.70
2017-12-10T04:00:48.219Z,99651.36
2017-12-10T04:03:17.999Z,99644.30
2017-12-10T04:05:46.310Z,99647.98
2017-12-10T04:08:17.842Z,99643.80
2017-12-10T04:10:46.133Z,99638.41
2017-12-10T04:13:17.958Z,99626.29
2017-12-10T04:15:46.289Z,99612.23
2017-12-10T04:18:17.741Z,99620.89
2017-12-10T04:20:46.322Z,99605.11
2017-12-10T04:23:17.728Z,99595.11
2017-12-10T04:25:46.058Z,99584.03
2017-12-10T04:28:21.356Z,99579.30
2017-12-10T04:30:49.640Z,99580.97
2017-12-10T04:33:17.909Z,99569.49
2017-12-10T04:35:46.185Z,99562.67
2017-12-10T04:38:21.742Z,99557.80
2017-12-10T04:40:50.712Z,99558.05
2017-12-10T04:43:19.193Z,99546.92
2017-12-10T04:45:47.455Z,99535.69
2017-12-10T04:48:19.484Z,99517.89
2017-12-10T04:50:47.734Z,99511.98
2017-12-10T04:53:17.669Z,99504.64
2017-12-10T04:55:45.923Z,99489.09
2017-12-10T04:58:17.365Z,99494.08
2017-12-10T05:00:46.223Z,99469.63
2017-12-10T05:03:21.394Z,99460.66
2017-12-10T05:05:49.653Z,99444.98
2017-12-10T05:08:17.929Z,99444.41
2017-12-10T05:10:46.209Z,99423.30
2017-12-10T05:13:21.666Z,99430.81
2017-12-10T05:15:50.354Z,99417.95
2017-12-10T05:18:18.849Z,99418.87
2017-12-10T05:20:47.125Z,99410.73
2017-12-10T05:23:18.760Z,99418.05
2017-12-10T05:25:47.154Z,99401.52
2017-12-10T05:28:18.611Z,99401.92
2017-12-10T05:30:46.890Z,99401.16
2017-12-10T05:33:19.082Z,99391.59
2017-12-10T05:35:47.369Z,99381.03
2017-12-10T05:38:19.489Z,99369.61
2017-12-10T05:40:47.862Z,99352.31
2017-12-10T05:43:17.850Z,99347.13
2017-12-10T05:45:46.132Z,99338.89
2017-12-10T05:48:21.186Z,99327.91
2017-12-10T05:50:49.576Z,99316.13
2017-12-10T05:53:17.855Z,99307.59
2017-12-10T05:55:46.133Z,99299.02
2017-12-10T05:58:21.314Z,99297.36
2017-12-10T06:00:49.590Z,99287.21
2017-12-10T06:03:17.901Z,99282.28
2017-12-10T06:05:46.173Z,99277.13
2017-12-10T06:08:17.386Z,99250.06
2017-12-10T06:10:45.671Z,99243.72
2017-12-10T06:13:16.910Z,99227.94
2017-12-10T06:15:45.280Z,99223.56
2017-12-10T06:18:20.466Z,99220.95
2017-12-10T06:20:48.952Z,99203.89
2017-12-10T06:23:17.209Z,99189.79
2017-12-10T06:25:45.466Z,99175.92
2017-12-10T06:28:17.341Z,99170.24
2017-12-10T06:30:46.461Z,99171.31
2017-12-10T06:33:17.989Z,99161.21
2017-12-10T06:35:46.496Z,99147.77
2017-12-10T06:38:18.584Z,99155.23
2017-12-10T06:40:47.578Z,99149.95
2017-12-10T06:43:17.600Z,99152.38
2017-12-10T06:45:45.889Z,99132.66
2017-12-10T06:48:18.157Z,99131.25
2017-12-10T06:50:47.104Z,99116.47
2017-12-10T06:53:16.997Z,99113.53
2017-12-10T06:55:45.265Z,99103.84
2017-12-10T06:58:18.486Z,99082.53
2017-12-10T07:00:46.919Z,99057.91
2017-12-10T07:03:18.301Z,99062.38
2017-12-10T07:05:46.569Z,99033.23
2017-12-10T07:08:17.827Z,99017.52
2017-12-10T07:10:46.081Z,99014.56
2017-12-10T07:13:17.495Z,99003.04
2017-12-10T07:15:45.772Z,98992.80
2017-12-10T07:18:17.056Z,98996.48
2017-12-10T07:20:45.481Z,98984.23
2017-12-10T07:23:17.499Z,98965.23
2017-12-10T07:25:45.769Z,98963.16
2017-12-10T07:28:17.237Z,98951.89
2017-12-10T07:30:45.528Z,98950.05
2017-12-10T07:33:17.044Z,98929.73
2017-12-10T07:35:45.521Z,98932.84
2017-12-10T07:38:18.096Z,98916.52
2017-12-10T07:40:46.376Z,98908.73
2017-12-10T07:43:18.420Z,98887.59
2017-12-10T07:45:46.821Z,98893.55
2017-12-10T07:48:16.836Z,98870.00
2017-12-10T07:50:45.109Z,98860.17
2017-12-10T07:53:16.581Z,98849.68
2017-12-10T07:55:45.493Z,98838.27
2017-12-10T07:58:16.884Z,98834.62
2017-12-10T08:00:45.169Z,98804.11
2017-12-10T08:03:21.484Z,98806.95
2017-12-10T08:05:49.781Z,98803.99
2017-12-10T08:08:18.436Z,98778.70
2017-12-10T08:10:46.677Z,98766.82
2017-12-10T08:13:18.426Z,98749.72
2017-12-10T08:15:46.926Z,98754.64
2017-12-10T08:18:18.729Z,98735.14
2017-12-10T08:20:47.000Z,98733.69
2017-12-10T08:23:18.301Z,98719.22
2017-12-10T08:25:46.633Z,98702.83
2017-12-10T08:28:18.176Z,98694.11
2017-12-10T08:30:46.578Z,98691.82
2017-12-10T08:33:18.891Z,98682.46
2017-12-10T08:35:47.144Z,98675.03
2017-12-10T08:38:18.421Z,98669.94
2017-12-10T08:40:46.698Z,98666.02
2017-12-10T08:43:18.193Z,98631.52
2017-12-10T08:45:46.479Z,98634.89
2017-12-10T08:48:18.103Z,98641.27
2017-12-10T08:50:46.394Z,98613.15
2017-12-10T08:53:18.024Z,98595.20
2017-12-10T08:55:46.300Z,98571.44
2017-12-10T08:58:17.491Z,98568.61
2017-12-10T09:00:45.774Z,98552.05
2017-12-10T09:03:17.089Z,98526.77
2017-12-10T09:05:45.377Z,98516.58
2017-12-10T09:08:16.968Z,98509.16
2017-12-10T09:10:45.280Z,98503.09
2017-12-10T09:13:16.684Z,98484.67
2017-12-10T09:15:44.958Z,98462.68
2017-12-10T09:18:16.504Z,98461.70
2017-12-10T09:20:44.792Z,98463.05
2017-12-10T09:23:20.061Z,98453.45
2017-12-10T09:25:48.364Z,98455.21
2017-12-10T09:28:17.058Z,98440.59
2017-12-10T09:30:46.002Z,98440.78
2017-12-10T09:33:16.891Z,98428.11
2017-12-10T09:35:45.176Z,98413.36
2017-12-10T09:38:17.045Z,98395.51
2017-12-10T09:40:45.323Z,98381.16
2017-12-10T09:43:17.146Z,98374.97
2017-12-10T09:45:46.482Z,98341.25
2017-12-10T09:48:17.704Z,98335.34
2017-12-10T09:50:45.969Z,98326.84
2017-12-10T09:53:16.802Z,98310.86
2017-12-10T09:55:45.280Z,98302.11
2017-12-10T09:58:20.356Z,98300.00
2017-12-10T10:00:48.615Z,98298.48
2017-12-10T10:03:16.921Z,98274.89
2017-12-10T10:05:45.221Z,98246.82
2017-12-10T10:08:20.130Z,98241.19
2017-12-10T10:10:48.415Z,98212.80
2017-12-10T10:13:17.321Z,98190.77
2017-12-10T10:15:45.634Z,98173.95
2017-12-10T10:18:17.744Z,98164.07
2017-12-10T10:20:46.178Z,98131.11
2017-12-10T10:23:17.000Z,98101.39
2017-12-10T10:25:45.367Z,98092.06
2017-12-10T10:28:17.505Z,98075.34
2017-12-10T10:30:45.907Z,98058.41
2017-12-10T10:33:16.929Z,98049.28
2017-12-10T10:35:45.295Z,98026.41
2017-12-10T10:38:20.663Z,98014.48
2017-12-10T10:40:48.951Z,97999.41
2017-12-10T10:43:18.054Z,97965.00
2017-12-10T10:45:46.378Z,97944.66
2017-12-10T10:48:18.463Z,97939.39
2017-12-10T10:50:46.748Z,97927.49
2017-12-10T10:53:17.977Z,97906.84
2017-12-10T10:55:46.440Z,97889.45
2017-12-10T10:58:18.521Z,97878.83
2017-12-10T11:00:46.974Z,97873.39
2017-12-10T11:03:16.813Z,97855.41
2017-12-10T11:05:45.090Z,97825.52
2017-12-10T11:08:20.325Z,97822.20
2017-12-10T11:10:48.598Z,97809.86
2017-12-10T11:13:16.948Z,97803.16
2017-12-10T11:15:45.174Z,97782.98
2017-12-10T11:18:16.982Z,97763.28
2017-12-10T11:20:45.242Z,97759.91
2017-12-10T11:23:20.364Z,97737.41
2017-12-10T11:25:48.666Z,97721.20
2017-12-10T11:28:16.922Z,97704.19
2017-12-10T11:30:45.233Z,97691.96
2017-12-10T11:33:20.282Z,97692.66
2017-12-10T11:35:48.561Z,97663.34
2017-12-10T11:38:16.829Z,97627.89
2017-12-10T11:40:45.124Z,97607.64
2017-12-10T11:43:18.332Z,97625.61
2017-12-10T11:45:46.865Z,97647.47
2017-12-10T11:48:18.526Z,97676.22
2017-12-10T11:50:46.809Z,97638.47
2017-12-10T11:53:17.660Z,97614.78
2017-12-10T11:55:45.929Z,97603.34
2017-12-10T11:58:17.134Z,97624.01
2017-12-10T12:00:45.424Z,97599.55
2017-12-10T12:03:19.324Z,97603.67
2017-12-10T12:05:47.637Z,97593.73
2017-12-10T12:08:17.033Z,97594.41
2017-12-10T12:10:45.352Z,97589.27
2017-12-10T12:13:17.537Z,97585.48
2017-12-10T12:15:45.803Z,97582.11
2017-12-10T12:18:16.897Z,97569.68
2017-12-10T12:20:45.159Z,97583.86
2017-12-10T12:23:16.652Z,97566.82
2017-12-10T12:25:44.909Z,97586.12
2017-12-10T12:28:20.333Z,97562.30
2017-12-10T12:30:48.935Z,97548.70
2017-12-10T12:33:17.204Z,97574.14
2017-12-10T12:35:45.488Z,97551.20
2017-12-10T12:38:17.106Z,97543.04
2017-12-10T12:40:45.380Z,97540.44
2017-12-10T12:43:17.506Z,97530.44
2017-12-10T12:45:46.036Z,97545.91
2017-12-10T12:48:19.505Z,97518.78
2017-12-10T12:50:47.745Z,97525.98
2017-12-10T12:53:17.658Z,97519.19
2017-12-10T12:55:45.940Z,97475.39
2017-12-10T12:58:18.096Z,97476.37
2017-12-10T13:00:46.365Z,97484.91
2017-12-10T13:03:18.473Z,97479.14
2017-12-10T13:05:46.754Z,97461.11
2017-12-10T13:08:16.837Z,97416.32
2017-12-10T13:10:45.118Z,97431.01
2017-12-10T13:13:16.687Z,97426.85
2017-12-10T13:15:45.008Z,97440.51
2017-12-10T13:18:21.166Z,97433.09
2017-12-10T13:20:49.462Z,97417.11
2017-12-10T13:23:18.384Z,97419.30
2017-12-10T13:25:46.682Z,97399.09
2017-12-10T13:28:18.619Z,97419.73
2017-12-10T13:30:46.897Z,97431.01
2017-12-10T13:33:18.549Z,97442.89
2017-12-10T13:35:47.238Z,97450.00
2017-12-10T13:38:19.006Z,97434.88
2017-12-10T13:40:47.512Z,97407.30
2017-12-10T13:43:17.137Z,97425.67
2017-12-10T13:45:45.463Z,97397.14
2017-12-10T13:48:19.393Z,97391.14
2017-12-10T13:50:47.729Z,97388.06
2017-12-10T13:53:17.228Z,97381.45
2017-12-10T13:55:45.505Z,97367.10
2017-12-10T13:58:19.452Z,97369.15
2017-12-10T14:00:47.898Z,97360.41
2017-12-10T14:03:17.440Z,97364.48
2017-12-10T14:05:45.717Z,97364.73
2017-12-10T14:08:17.613Z,97364.59
2017-12-10T14:10:45.904Z,97350.39
2017-12-10T14:13:16.919Z,97349.91
2017-12-10T14:15:45.541Z,97349.78
2017-12-10T14:18:17.635Z,97335.06
2017-12-10T14:20:45.944Z,97323.91
2017-12-10T14:23:18.217Z,97320.46
2017-12-10T14:25:46.485Z,97314.98
2017-12-10T14:28:17.910Z,97326.40
2017-12-10T14:30:46.173Z,97319.73
2017-12-10T14:33:17.844Z,97301.02
2017-12-10T14:35:46.100Z,97303.56
2017-12-10T14:38:18.107Z,97306.88
2017-12-10T14:40:46.380Z,97283.87
2017-12-10T14:43:18.544Z,97289.83
2017-12-10T14:45:47.289Z,97279.59
2017-12-10T14:48:17.275Z,97277.59
2017-12-10T14:50:45.547Z,97269.66
2017-12-10T14:53:17.169Z,97275.14
2017-12-10T14:55:45.533Z,97273.83
2017-12-10T14:58:17.659Z,97262.89
2017-12-10T15:00:46.440Z,97291.97
2017-12-10T15:03:18.308Z,97274.22
2017-12-10T15:05:46.576Z,97267.36
2017-12-10T15:08:18.791Z,97274.73
2017-12-10T15:10:47.141Z,97262.09
2017-12-10T15:13:17.424Z,97259.74
2017-12-10T15:15:45.688Z,97258.69
2017-12-10T15:18:17.598Z,97246.50
2017-12-10T15:20:45.916Z,97258.79
2017-12-10T15:23:17.144Z,97253.42
2017-12-10T15:25:45.871Z,97249.56
2017-12-10T15:28:17.640Z,97252.50
2017-12-10T15:30:45.962Z,97240.75
2017-12-10T15:33:18.075Z,97239.76
2017-12-10T15:35:46.359Z,97255.73
2017-12-10T15:38:17.777Z,97240.47
2017-12-10T15:40:46.068Z,97243.55
2017-12-10T15:43:17.041Z,97237.80
2017-12-10T15:45:45.320Z,97244.77
2017-12-10T15:48:16.748Z,97236.48
2017-12-10T15:50:46.699Z,97217.73
2017-12-10T15:53:18.506Z,97221.59
2017-12-10T15:55:46.774Z,97218.42
2017-12-10T15:58:18.232Z,97213.66
2017-12-10T16:00:46.832Z,97214.27
2017-12-10T16:03:18.903Z,97217.11
2017-12-10T16:05:47.192Z,97213.11
2017-12-10T16:08:18.815Z,97214.52
2017-12-10T16:10:47.118Z,97194.91
2017-12-10T16:13:18.367Z,97195.73
2017-12-10T16:15:46.634Z,97198.77
2017-12-10T16:18:18.765Z,97203.35
2017-12-10T16:20:47.036Z,97202.94
2017-12-10T16:23:16.861Z,97184.52
2017-12-10T16:25:45.113Z,97188.22
2017-12-10T16:28:16.590Z,97178.34
2017-12-10T16:30:45.003Z,97181.17
2017-12-10T16:33:16.585Z,97169.52
2017-12-10T16:35:44.864Z,97170.56
2017-12-10T16:38:20.200Z,97169.94
2017-12-10T16:40:48.624Z,97181.02
2017-12-10T16:43:16.892Z,97155.41
2017-12-10T16:45:45.164Z,97160.32
2017-12-10T16:48:20.639Z,97157.14
2017-12-10T16:50:48.992Z,97170.18
2017-12-10T16:53:17.245Z,97184.95
2017-12-10T16:55:45.540Z,97182.32
2017-12-10T16:58:17.360Z,97176.82
2017-12-10T17:00:45.676Z,97172.95
2017-12-10T17:03:18.780Z,97167.16
2017-12-10T17:05:47.599Z,97168.72
2017-12-10T17:08:16.716Z,97175.25
2017-12-10T17:10:45.227Z,97156.67
2017-12-10T17:13:16.467Z,97168.27
2017-12-10T17:15:44.728Z,97153.50
2017-12-10T17:18:16.283Z,97174.61
2017-12-10T17:20:44.646Z,97168.33
2017-12-10T17:23:16.155Z,97185.31
2017-12-10T17:25:44.583Z,97178.06
2017-12-10T17:28:17.402Z,97171.38
2017-12-10T17:30:46.035Z,97166.17
2017-12-10T17:33:18.222Z,97166.12
2017-12-10T17:35:46.736Z,97165.94
2017-12-10T17:38:16.377Z,97177.23
2017-12-10T17:40:44.665Z,97162.48
2017-12-10T17:43:16.336Z,97171.97
2017-12-10T17:45:44.802Z,97166.77
2017-12-10T17:48:20.002Z,97171.31
2017-12-10T17:50:48.339Z,97163.95
2017-12-10T17:53:17.308Z,97172.69
2017-12-10T17:55:45.698Z,97180.63
2017-12-10T17:58:17.014Z,97180.77
2017-12-10T18:00:45.313Z,97178.41
2017-12-10T18:03:16.954Z,97175.05
2017-12-10T18:05:45.259Z,97188.97
2017-12-10T18:08:17.230Z,97179.05
2017-12-10T18:10:45.550Z,97181.07
2017-12-10T18:13:17.649Z,97194.75
2017-12-10T18:15:45.987Z,97198.20
2017-12-10T18:18:17.340Z,97199.41
2017-12-10T18:20:45.741Z,97193.21
2017-12-10T18:23:17.863Z,97201.64
2017-12-10T18:25:46.131Z,97200.17
2017-12-10T18:28:17.368Z,97189.45
2017-12-10T18:30:45.900Z,97208.48
2017-12-10T18:33:17.740Z,97217.08
2017-12-10T18:35:46.039Z,97231.86
2017-12-10T18:38:17.545Z,97221.56
2017-12-10T18:40:46.146Z,97232.62
2017-12-10T18:43:17.937Z,97224.00
2017-12-10T18:45:46.193Z,97234.45
2017-12-10T18:48:18.266Z,97208.13
2017-12-10T18:50:46.812Z,97205.99
2017-12-10T18:53:16.459Z,97212.69
2017-12-10T18:55:44.748Z,97205.39
2017-12-10T18:58:16.388Z,97194.06
2017-12-10T19:00:46.548Z,97207.72
2017-12-10T19:03:17.909Z,97211.59
2017-12-10T19:05:46.325Z,97193.26
2017-12-10T19:08:18.386Z,97201.24
2017-12-10T19:10:46.714Z,97221.33
2017-12-10T19:13:18.637Z,97204.29
2017-12-10T19:15:46.921Z,97206.33
2017-12-10T19:18:17.122Z,97201.16
2017-12-10T19:20:45.701Z,97220.80
2017-12-10T19:23:17.829Z,97213.42
2017-12-10T19:25:46.115Z,97217.59
2017-12-10T19:28:17.468Z,97224.39
2017-12-10T19:30:45.916Z,97228.72
2017-12-10T19:33:17.187Z,97234.59
2017-12-10T19:35:45.485Z,97223.66
2017-12-10T19:38:16.550Z,97236.45
2017-12-10T19:40:45.466Z,97217.88
2017-12-10T19:43:17.200Z,97217.38
2017-12-10T19:45:45.453Z,97214.23
2017-12-10T19:48:17.585Z,97209.48
2017-12-10T19:50:45.980Z,97203.81
2017-12-10T19:53:17.241Z,97201.48
2017-12-10T19:55:45.573Z,97195.80
2017-12-10T19:58:16.872Z,97197.72
2017-12-10T20:00:45.564Z,97192.97
2017-12-10T20:03:17.567Z,97192.14
2017-12-10T20:05:45.808Z,97185.86
2017-12-10T20:08:17.120Z,97198.66
2017-12-10T20:10:45.373Z,97209.08
2017-12-10T20:13:17.381Z,97217.36
2017-12-10T20:15:45.656Z,97212.22
2017-12-10T20:18:17.748Z,97220.03
2017-12-10T20:20:46.020Z,97220.14
2017-12-10T20:23:18.020Z,97226.42
2017-12-10T20:25:46.345Z,97231.56
2017-12-10T20:28:16.411Z,97226.70
2017-12-10T20:30:44.736Z,97224.88
2017-12-10T20:33:16.583Z,97228.93
2017-12-10T20:35:44.938Z,97253.05
2017-12-10T20:38:16.407Z,97220.83
2017-12-10T20:40:44.698Z,97232.59
2017-12-10T20:43:16.242Z,97237.55
2017-12-10T20:45:45.187Z,97254.95
2017-12-10T20:48:17.412Z,97265.81
2017-12-10T20:50:45.717Z,97264.37
2017-12-10T20:53:16.980Z,97277.66
2017-12-10T20:55:45.292Z,97278.19
2017-12-10T20:58:17.421Z,97283.64
2017-12-10T21:00:45.711Z,97268.27
2017-12-10T21:03:17.680Z,97298.45
2017-12-10T21:05:45.976Z,97297.75
2017-12-10T21:08:17.144Z,97303.20
2017-12-10T21:10:45.437Z,97302.52
2017-12-10T21:13:16.334Z,97313.47
2017-12-10T21:15:44.640Z,97323.18
2017-12-10T21:18:18.693Z,97323.59
2017-12-10T21:20:46.948Z,97318.02
2017-12-10T21:23:17.075Z,97329.77
2017-12-10T21:25:45.347Z,97319.03
2017-12-10T21:28:17.444Z,97317.11
2017-12-10T21:30:45.739Z,97322.16
2017-12-10T21:33:16.979Z,97315.19
2017-12-10T21:35:45.269Z,97334.52
2017-12-10T21:38:16.713Z,97334.90
2017-12-10T21:40:45.173Z,97341.41
2017-12-10T21:43:16.383Z,97355.17
2017-12-10T21:45:44.666Z,97351.83
2017-12-10T21:48:16.566Z,97349.09
2017-12-10T21:50:44.833Z,97352.31
2017-12-10T21:53:16.628Z,97345.84
2017-12-10T21:55:44.902Z,97364.21
2017-12-10T21:58:16.529Z,97362.30
2017-12-10T22:00:44.782Z,97363.31
2017-12-10T22:03:16.600Z,97377.20
2017-12-10T22:05:44.860Z,97380.55
2017-12-10T22:08:16.722Z,97398.69
2017-12-10T22:10:44.990Z,97404.08
2017-12-10T22:13:16.396Z,97407.34
2017-12-10T22:15:44.862Z,97419.47
2017-12-10T22:18:16.599Z,97429.56
2017-12-10T22:20:44.852Z,97431.26
2017-12-10T22:23:16.456Z,97469.47
2017-12-10T22:25:44.717Z,97483.13
2017-12-10T22:28:16.195Z,97496.88
2017-12-10T22:30:44.508Z,97500.49
2017-12-10T22:33:16.340Z,97514.03
2017-12-10T22:35:44.856Z,97515.92
2017-12-10T22:38:17.872Z,97524.13
2017-12-10T22:40:46.161Z,97535.08
2017-12-10T22:43:17.371Z,97544.80
2017-12-10T22:45:45.744Z,97553.69
2017-12-10T22:48:17.026Z,97554.09
2017-12-10T22:50:45.286Z,97568.72
2017-12-10T22:53:17.098Z,97571.34
2017-12-10T22:55:45.349Z,97581.09
2017-12-10T22:58:17.141Z,97597.97
2017-12-10T23:00:45.419Z,97606.56
2017-12-10T23:03:17.222Z,97620.52
2017-12-10T23:05:45.481Z,97632.47
2017-12-10T23:08:16.937Z,97648.72
2017-12-10T23:10:45.212Z,97655.13
2017-12-10T23:13:16.809Z,97650.70
2017-12-10T23:15:45.269Z,97657.89
2017-12-10T23:18:17.065Z,97657.16
2017-12-10T23:20:45.345Z,97662.11
2017-12-10T23:23:16.637Z,97663.88
2017-12-10T23:25:45.246Z,97667.78
2017-12-10T23:28:16.729Z,97669.46
2017-12-10T23:30:45.030Z,97671.44
2017-12-10T23:33:16.304Z,97679.06
2017-12-10T23:35:44.597Z,97693.86
2017-12-10T23:38:19.205Z,97693.60
2017-12-10T23:40:47.480Z,97712.79
2017-12-10T23:43:17.106Z,97713.25
2017-12-10T23:45:45.381Z,97724.60
2017-12-10T23:48:17.262Z,97736.42
2017-12-10T23:50:45.684Z,97744.17
2017-12-10T23:53:16.889Z,97743.55
2017-12-10T23:55:45.261Z,97762.52
2017-12-10T23:58:16.963Z,97776.47
